sensor_id;sensor_type;location;lat;lon;timestamp;P1;durP1;ratioP1;P2;durP2;ratioP2
72286;SDS011;60221;45.696;16.076;2023-12-20T00:02:16;54.80;;;25.20;;
72286;SDS011;60221;45.696;16.076;2023-12-20T00:04:43;59.60;;;25.10;;
72286;SDS011;60221;45.696;16.076;2023-12-20T00:07:10;57.70;;;22.90;;
72286;SDS011;60221;45.696;16.076;2023-12-20T00:09:37;69.20;;;27.00;;
72286;SDS011;60221;45.696;16.076;2023-12-20T00:12:04;64.60;;;26.60;;
72286;SDS011;60221;45.696;16.076;2023-12-20T00:14:30;63.80;;;26.10;;
72286;SDS011;60221;45.696;16.076;2023-12-20T00:16:57;61.30;;;25.80;;
72286;SDS011;60221;45.696;16.076;2023-12-20T00:19:24;61.40;;;24.60;;
72286;SDS011;60221;45.696;16.076;2023-12-20T00:21:51;60.40;;;24.20;;
72286;SDS011;60221;45.696;16.076;2023-12-20T00:24:18;57.70;;;23.00;;
72286;SDS011;60221;45.696;16.076;2023-12-20T00:26:45;60.00;;;25.20;;
72286;SDS011;60221;45.696;16.076;2023-12-20T00:29:12;61.00;;;25.20;;
72286;SDS011;60221;45.696;16.076;2023-12-20T00:31:39;57.10;;;23.80;;
72286;SDS011;60221;45.696;16.076;2023-12-20T00:34:05;59.20;;;26.00;;
72286;SDS011;60221;45.696;16.076;2023-12-20T00:36:33;58.80;;;24.80;;
72286;SDS011;60221;45.696;16.076;2023-12-20T00:38:59;60.80;;;23.70;;
72286;SDS011;60221;45.696;16.076;2023-12-20T00:41:26;57.50;;;25.20;;
72286;SDS011;60221;45.696;16.076;2023-12-20T00:43:53;58.30;;;24.20;;
72286;SDS011;60221;45.696;16.076;2023-12-20T00:46:20;62.40;;;26.40;;
72286;SDS011;60221;45.696;16.076;2023-12-20T00:48:47;60.60;;;26.10;;
72286;SDS011;60221;45.696;16.076;2023-12-20T00:51:14;67.30;;;25.60;;
72286;SDS011;60221;45.696;16.076;2023-12-20T00:53:40;66.00;;;27.40;;
72286;SDS011;60221;45.696;16.076;2023-12-20T00:56:07;59.10;;;25.70;;
72286;SDS011;60221;45.696;16.076;2023-12-20T00:58:35;61.90;;;26.00;;
72286;SDS011;60221;45.696;16.076;2023-12-20T01:01:01;56.00;;;24.10;;
72286;SDS011;60221;45.696;16.076;2023-12-20T01:03:28;64.40;;;27.80;;
72286;SDS011;60221;45.696;16.076;2023-12-20T01:05:55;61.10;;;26.00;;
72286;SDS011;60221;45.696;16.076;2023-12-20T01:08:22;55.10;;;25.50;;
72286;SDS011;60221;45.696;16.076;2023-12-20T01:10:49;59.80;;;24.80;;
72286;SDS011;60221;45.696;16.076;2023-12-20T01:13:16;61.30;;;27.80;;
72286;SDS011;60221;45.696;16.076;2023-12-20T01:15:43;59.40;;;26.60;;
72286;SDS011;60221;45.696;16.076;2023-12-20T01:18:09;60.30;;;25.30;;
72286;SDS011;60221;45.696;16.076;2023-12-20T01:20:36;62.90;;;27.20;;
72286;SDS011;60221;45.696;16.076;2023-12-20T01:23:03;68.90;;;30.00;;
72286;SDS011;60221;45.696;16.076;2023-12-20T01:25:30;61.70;;;25.40;;
72286;SDS011;60221;45.696;16.076;2023-12-20T01:27:57;64.80;;;25.80;;
72286;SDS011;60221;45.696;16.076;2023-12-20T01:30:24;62.80;;;26.10;;
72286;SDS011;60221;45.696;16.076;2023-12-20T01:32:51;60.90;;;27.00;;
72286;SDS011;60221;45.696;16.076;2023-12-20T01:35:18;61.70;;;27.20;;
72286;SDS011;60221;45.696;16.076;2023-12-20T01:37:45;67.90;;;29.00;;
72286;SDS011;60221;45.696;16.076;2023-12-20T01:40:12;63.20;;;29.60;;
72286;SDS011;60221;45.696;16.076;2023-12-20T01:42:39;66.30;;;29.60;;
72286;SDS011;60221;45.696;16.076;2023-12-20T01:45:06;64.30;;;28.10;;
72286;SDS011;60221;45.696;16.076;2023-12-20T01:47:33;62.80;;;29.10;;
72286;SDS011;60221;45.696;16.076;2023-12-20T01:50:00;60.40;;;28.40;;
72286;SDS011;60221;45.696;16.076;2023-12-20T01:52:30;69.10;;;28.30;;
72286;SDS011;60221;45.696;16.076;2023-12-20T01:55:00;62.40;;;27.00;;
72286;SDS011;60221;45.696;16.076;2023-12-20T01:57:30;56.90;;;23.70;;
72286;SDS011;60221;45.696;16.076;2023-12-20T01:59:57;56.80;;;25.20;;
72286;SDS011;60221;45.696;16.076;2023-12-20T02:02:24;54.50;;;24.70;;
72286;SDS011;60221;45.696;16.076;2023-12-20T02:04:52;51.50;;;23.70;;
72286;SDS011;60221;45.696;16.076;2023-12-20T02:07:19;61.40;;;23.80;;
72286;SDS011;60221;45.696;16.076;2023-12-20T02:09:47;57.40;;;24.60;;
72286;SDS011;60221;45.696;16.076;2023-12-20T02:12:13;53.50;;;24.20;;
72286;SDS011;60221;45.696;16.076;2023-12-20T02:14:40;59.10;;;26.60;;
72286;SDS011;60221;45.696;16.076;2023-12-20T02:17:07;62.80;;;26.40;;
72286;SDS011;60221;45.696;16.076;2023-12-20T02:19:34;63.50;;;27.40;;
72286;SDS011;60221;45.696;16.076;2023-12-20T02:22:11;61.90;;;25.30;;
72286;SDS011;60221;45.696;16.076;2023-12-20T02:24:38;55.30;;;26.00;;
72286;SDS011;60221;45.696;16.076;2023-12-20T02:27:06;58.40;;;27.70;;
72286;SDS011;60221;45.696;16.076;2023-12-20T02:29:34;65.70;;;27.70;;
72286;SDS011;60221;45.696;16.076;2023-12-20T02:32:01;59.60;;;26.70;;
72286;SDS011;60221;45.696;16.076;2023-12-20T02:34:28;61.80;;;26.70;;
72286;SDS011;60221;45.696;16.076;2023-12-20T02:36:55;56.80;;;24.00;;
72286;SDS011;60221;45.696;16.076;2023-12-20T02:39:22;62.10;;;27.70;;
72286;SDS011;60221;45.696;16.076;2023-12-20T02:41:49;60.60;;;25.90;;
72286;SDS011;60221;45.696;16.076;2023-12-20T02:44:15;54.80;;;26.50;;
72286;SDS011;60221;45.696;16.076;2023-12-20T02:46:42;56.10;;;25.00;;
72286;SDS011;60221;45.696;16.076;2023-12-20T02:49:09;58.80;;;25.80;;
72286;SDS011;60221;45.696;16.076;2023-12-20T02:51:36;59.70;;;27.20;;
72286;SDS011;60221;45.696;16.076;2023-12-20T02:54:05;60.00;;;26.20;;
72286;SDS011;60221;45.696;16.076;2023-12-20T02:56:32;56.00;;;23.70;;
72286;SDS011;60221;45.696;16.076;2023-12-20T02:58:59;56.90;;;22.10;;
72286;SDS011;60221;45.696;16.076;2023-12-20T03:01:27;57.60;;;24.90;;
72286;SDS011;60221;45.696;16.076;2023-12-20T03:03:54;63.30;;;25.60;;
72286;SDS011;60221;45.696;16.076;2023-12-20T03:06:21;53.80;;;23.90;;
72286;SDS011;60221;45.696;16.076;2023-12-20T03:08:48;53.90;;;23.50;;
72286;SDS011;60221;45.696;16.076;2023-12-20T03:11:15;53.70;;;23.50;;
72286;SDS011;60221;45.696;16.076;2023-12-20T03:13:41;61.40;;;26.00;;
72286;SDS011;60221;45.696;16.076;2023-12-20T03:16:09;58.50;;;22.50;;
72286;SDS011;60221;45.696;16.076;2023-12-20T03:18:36;54.10;;;23.00;;
72286;SDS011;60221;45.696;16.076;2023-12-20T03:21:03;53.80;;;22.30;;
72286;SDS011;60221;45.696;16.076;2023-12-20T03:23:30;49.90;;;21.90;;
72286;SDS011;60221;45.696;16.076;2023-12-20T03:25:59;51.20;;;22.80;;
72286;SDS011;60221;45.696;16.076;2023-12-20T03:28:26;52.40;;;23.10;;
72286;SDS011;60221;45.696;16.076;2023-12-20T03:30:53;54.10;;;23.10;;
72286;SDS011;60221;45.696;16.076;2023-12-20T03:33:20;53.00;;;22.50;;
72286;SDS011;60221;45.696;16.076;2023-12-20T03:35:47;54.90;;;24.40;;
72286;SDS011;60221;45.696;16.076;2023-12-20T03:38:14;56.30;;;25.00;;
72286;SDS011;60221;45.696;16.076;2023-12-20T03:40:41;54.90;;;20.60;;
72286;SDS011;60221;45.696;16.076;2023-12-20T03:43:08;53.90;;;23.40;;
72286;SDS011;60221;45.696;16.076;2023-12-20T03:45:34;50.00;;;21.30;;
72286;SDS011;60221;45.696;16.076;2023-12-20T03:48:01;47.50;;;21.20;;
72286;SDS011;60221;45.696;16.076;2023-12-20T03:50:28;50.90;;;21.40;;
72286;SDS011;60221;45.696;16.076;2023-12-20T03:52:55;50.90;;;23.70;;
72286;SDS011;60221;45.696;16.076;2023-12-20T03:55:22;49.70;;;22.60;;
72286;SDS011;60221;45.696;16.076;2023-12-20T03:57:49;58.80;;;24.40;;
72286;SDS011;60221;45.696;16.076;2023-12-20T04:00:16;63.30;;;24.10;;
72286;SDS011;60221;45.696;16.076;2023-12-20T04:02:43;52.30;;;23.20;;
72286;SDS011;60221;45.696;16.076;2023-12-20T04:05:09;51.20;;;22.70;;
72286;SDS011;60221;45.696;16.076;2023-12-20T04:07:36;53.10;;;23.10;;
72286;SDS011;60221;45.696;16.076;2023-12-20T04:10:04;52.50;;;23.90;;
72286;SDS011;60221;45.696;16.076;2023-12-20T04:12:31;53.60;;;23.20;;
72286;SDS011;60221;45.696;16.076;2023-12-20T04:14:58;49.40;;;23.50;;
72286;SDS011;60221;45.696;16.076;2023-12-20T04:17:25;59.60;;;25.80;;
72286;SDS011;60221;45.696;16.076;2023-12-20T04:19:52;53.40;;;24.30;;
72286;SDS011;60221;45.696;16.076;2023-12-20T04:22:19;59.10;;;24.90;;
72286;SDS011;60221;45.696;16.076;2023-12-20T04:24:46;58.70;;;25.40;;
72286;SDS011;60221;45.696;16.076;2023-12-20T04:27:13;58.60;;;24.10;;
72286;SDS011;60221;45.696;16.076;2023-12-20T04:29:40;51.70;;;23.00;;
72286;SDS011;60221;45.696;16.076;2023-12-20T04:32:06;52.50;;;23.50;;
72286;SDS011;60221;45.696;16.076;2023-12-20T04:34:33;52.80;;;23.80;;
72286;SDS011;60221;45.696;16.076;2023-12-20T04:37:00;57.40;;;25.10;;
72286;SDS011;60221;45.696;16.076;2023-12-20T04:39:28;58.90;;;24.50;;
72286;SDS011;60221;45.696;16.076;2023-12-20T04:41:55;57.80;;;24.80;;
72286;SDS011;60221;45.696;16.076;2023-12-20T04:44:22;54.10;;;23.70;;
72286;SDS011;60221;45.696;16.076;2023-12-20T04:46:49;59.60;;;26.20;;
72286;SDS011;60221;45.696;16.076;2023-12-20T04:49:15;59.10;;;26.60;;
72286;SDS011;60221;45.696;16.076;2023-12-20T04:51:42;60.40;;;26.50;;
72286;SDS011;60221;45.696;16.076;2023-12-20T04:54:09;56.80;;;24.80;;
72286;SDS011;60221;45.696;16.076;2023-12-20T04:56:37;56.60;;;24.00;;
72286;SDS011;60221;45.696;16.076;2023-12-20T04:59:04;49.30;;;23.10;;
72286;SDS011;60221;45.696;16.076;2023-12-20T05:01:30;54.70;;;21.70;;
72286;SDS011;60221;45.696;16.076;2023-12-20T05:03:57;53.10;;;22.50;;
72286;SDS011;60221;45.696;16.076;2023-12-20T05:06:24;48.70;;;23.10;;
72286;SDS011;60221;45.696;16.076;2023-12-20T05:08:51;49.80;;;23.20;;
72286;SDS011;60221;45.696;16.076;2023-12-20T05:11:18;47.40;;;22.50;;
72286;SDS011;60221;45.696;16.076;2023-12-20T05:13:44;51.80;;;23.00;;
72286;SDS011;60221;45.696;16.076;2023-12-20T05:16:16;47.60;;;23.40;;
72286;SDS011;60221;45.696;16.076;2023-12-20T05:18:45;47.60;;;23.20;;
72286;SDS011;60221;45.696;16.076;2023-12-20T05:21:12;47.00;;;22.40;;
72286;SDS011;60221;45.696;16.076;2023-12-20T05:23:39;46.30;;;22.00;;
72286;SDS011;60221;45.696;16.076;2023-12-20T05:26:06;56.70;;;25.80;;
72286;SDS011;60221;45.696;16.076;2023-12-20T05:28:33;56.90;;;26.70;;
72286;SDS011;60221;45.696;16.076;2023-12-20T05:31:00;58.10;;;24.20;;
72286;SDS011;60221;45.696;16.076;2023-12-20T05:33:27;51.50;;;24.00;;
72286;SDS011;60221;45.696;16.076;2023-12-20T05:35:54;51.40;;;25.70;;
72286;SDS011;60221;45.696;16.076;2023-12-20T05:38:21;50.00;;;23.10;;
72286;SDS011;60221;45.696;16.076;2023-12-20T05:40:48;51.70;;;23.00;;
72286;SDS011;60221;45.696;16.076;2023-12-20T05:43:15;56.40;;;24.40;;
72286;SDS011;60221;45.696;16.076;2023-12-20T05:45:41;52.40;;;22.20;;
72286;SDS011;60221;45.696;16.076;2023-12-20T05:48:09;49.10;;;22.80;;
72286;SDS011;60221;45.696;16.076;2023-12-20T05:50:36;47.40;;;21.60;;
72286;SDS011;60221;45.696;16.076;2023-12-20T05:53:03;54.80;;;24.20;;
72286;SDS011;60221;45.696;16.076;2023-12-20T05:55:30;50.10;;;22.00;;
72286;SDS011;60221;45.696;16.076;2023-12-20T05:57:56;50.10;;;22.40;;
72286;SDS011;60221;45.696;16.076;2023-12-20T06:00:24;47.70;;;21.20;;
72286;SDS011;60221;45.696;16.076;2023-12-20T06:02:51;50.20;;;21.70;;
72286;SDS011;60221;45.696;16.076;2023-12-20T06:05:18;46.80;;;21.40;;
72286;SDS011;60221;45.696;16.076;2023-12-20T06:07:45;52.20;;;22.90;;
72286;SDS011;60221;45.696;16.076;2023-12-20T06:10:15;43.70;;;20.60;;
72286;SDS011;60221;45.696;16.076;2023-12-20T06:12:42;47.60;;;21.20;;
72286;SDS011;60221;45.696;16.076;2023-12-20T06:15:09;49.50;;;22.70;;
72286;SDS011;60221;45.696;16.076;2023-12-20T06:17:35;50.80;;;24.20;;
72286;SDS011;60221;45.696;16.076;2023-12-20T06:20:03;46.40;;;22.20;;
72286;SDS011;60221;45.696;16.076;2023-12-20T06:22:34;48.20;;;21.70;;
72286;SDS011;60221;45.696;16.076;2023-12-20T06:25:02;46.60;;;21.90;;
72286;SDS011;60221;45.696;16.076;2023-12-20T06:27:29;48.90;;;21.50;;
72286;SDS011;60221;45.696;16.076;2023-12-20T06:29:57;55.50;;;22.30;;
72286;SDS011;60221;45.696;16.076;2023-12-20T06:32:23;49.00;;;21.20;;
72286;SDS011;60221;45.696;16.076;2023-12-20T06:34:51;48.60;;;21.80;;
72286;SDS011;60221;45.696;16.076;2023-12-20T06:37:18;44.50;;;22.00;;
72286;SDS011;60221;45.696;16.076;2023-12-20T06:39:45;41.00;;;19.80;;
72286;SDS011;60221;45.696;16.076;2023-12-20T06:42:13;45.40;;;22.10;;
72286;SDS011;60221;45.696;16.076;2023-12-20T06:44:40;44.30;;;20.80;;
72286;SDS011;60221;45.696;16.076;2023-12-20T06:47:07;44.90;;;20.60;;
72286;SDS011;60221;45.696;16.076;2023-12-20T06:49:33;47.90;;;21.80;;
72286;SDS011;60221;45.696;16.076;2023-12-20T06:52:00;47.60;;;21.00;;
72286;SDS011;60221;45.696;16.076;2023-12-20T06:54:27;45.10;;;21.40;;
72286;SDS011;60221;45.696;16.076;2023-12-20T06:56:54;46.60;;;20.30;;
72286;SDS011;60221;45.696;16.076;2023-12-20T06:59:21;49.20;;;21.50;;
72286;SDS011;60221;45.696;16.076;2023-12-20T07:01:50;50.60;;;22.00;;
72286;SDS011;60221;45.696;16.076;2023-12-20T07:04:17;42.40;;;19.80;;
72286;SDS011;60221;45.696;16.076;2023-12-20T07:06:48;44.30;;;20.10;;
72286;SDS011;60221;45.696;16.076;2023-12-20T07:09:19;40.30;;;20.40;;
72286;SDS011;60221;45.696;16.076;2023-12-20T07:11:45;44.30;;;21.50;;
72286;SDS011;60221;45.696;16.076;2023-12-20T07:14:12;40.50;;;19.60;;
72286;SDS011;60221;45.696;16.076;2023-12-20T07:16:39;43.60;;;19.30;;
72286;SDS011;60221;45.696;16.076;2023-12-20T07:19:06;36.90;;;18.50;;
72286;SDS011;60221;45.696;16.076;2023-12-20T07:21:34;41.50;;;18.80;;
72286;SDS011;60221;45.696;16.076;2023-12-20T07:24:01;40.50;;;19.30;;
72286;SDS011;60221;45.696;16.076;2023-12-20T07:26:28;41.70;;;19.90;;
72286;SDS011;60221;45.696;16.076;2023-12-20T07:28:54;42.10;;;19.90;;
72286;SDS011;60221;45.696;16.076;2023-12-20T07:31:21;42.70;;;21.20;;
72286;SDS011;60221;45.696;16.076;2023-12-20T07:33:48;43.80;;;21.70;;
72286;SDS011;60221;45.696;16.076;2023-12-20T07:36:15;47.20;;;22.40;;
72286;SDS011;60221;45.696;16.076;2023-12-20T07:38:42;52.20;;;24.20;;
72286;SDS011;60221;45.696;16.076;2023-12-20T07:41:10;60.80;;;27.80;;
72286;SDS011;60221;45.696;16.076;2023-12-20T07:43:37;59.40;;;26.50;;
72286;SDS011;60221;45.696;16.076;2023-12-20T07:46:05;66.60;;;29.80;;
72286;SDS011;60221;45.696;16.076;2023-12-20T07:48:34;66.20;;;30.00;;
72286;SDS011;60221;45.696;16.076;2023-12-20T07:51:01;64.00;;;28.40;;
72286;SDS011;60221;45.696;16.076;2023-12-20T07:53:28;61.60;;;29.20;;
72286;SDS011;60221;45.696;16.076;2023-12-20T07:55:55;76.90;;;33.30;;
72286;SDS011;60221;45.696;16.076;2023-12-20T07:58:21;71.20;;;32.00;;
72286;SDS011;60221;45.696;16.076;2023-12-20T08:01:01;68.20;;;30.90;;
72286;SDS011;60221;45.696;16.076;2023-12-20T08:03:28;85.30;;;34.60;;
72286;SDS011;60221;45.696;16.076;2023-12-20T08:05:55;84.80;;;35.50;;
72286;SDS011;60221;45.696;16.076;2023-12-20T08:08:23;85.70;;;36.90;;
72286;SDS011;60221;45.696;16.076;2023-12-20T08:10:49;56.70;;;25.50;;
72286;SDS011;60221;45.696;16.076;2023-12-20T08:13:16;79.80;;;35.20;;
72286;SDS011;60221;45.696;16.076;2023-12-20T08:15:43;75.20;;;35.20;;
72286;SDS011;60221;45.696;16.076;2023-12-20T08:18:10;86.90;;;37.80;;
72286;SDS011;60221;45.696;16.076;2023-12-20T08:20:37;78.00;;;36.30;;
72286;SDS011;60221;45.696;16.076;2023-12-20T08:23:06;78.70;;;37.50;;
72286;SDS011;60221;45.696;16.076;2023-12-20T08:25:33;75.90;;;36.90;;
72286;SDS011;60221;45.696;16.076;2023-12-20T08:28:01;72.00;;;32.70;;
72286;SDS011;60221;45.696;16.076;2023-12-20T08:30:28;72.30;;;32.50;;
72286;SDS011;60221;45.696;16.076;2023-12-20T08:32:56;70.60;;;32.40;;
72286;SDS011;60221;45.696;16.076;2023-12-20T08:35:23;76.90;;;33.60;;
72286;SDS011;60221;45.696;16.076;2023-12-20T08:37:50;79.40;;;33.30;;
72286;SDS011;60221;45.696;16.076;2023-12-20T08:40:17;54.80;;;23.80;;
72286;SDS011;60221;45.696;16.076;2023-12-20T08:42:44;61.10;;;29.50;;
72286;SDS011;60221;45.696;16.076;2023-12-20T08:45:10;62.80;;;28.70;;
72286;SDS011;60221;45.696;16.076;2023-12-20T08:47:37;82.70;;;34.30;;
72286;SDS011;60221;45.696;16.076;2023-12-20T08:50:04;82.10;;;33.80;;
72286;SDS011;60221;45.696;16.076;2023-12-20T08:52:31;67.70;;;30.80;;
72286;SDS011;60221;45.696;16.076;2023-12-20T08:54:58;81.00;;;33.30;;
72286;SDS011;60221;45.696;16.076;2023-12-20T08:57:25;93.70;;;37.20;;
72286;SDS011;60221;45.696;16.076;2023-12-20T08:59:52;103.50;;;39.90;;
72286;SDS011;60221;45.696;16.076;2023-12-20T09:02:18;88.40;;;41.00;;
72286;SDS011;60221;45.696;16.076;2023-12-20T09:04:45;122.70;;;51.50;;
72286;SDS011;60221;45.696;16.076;2023-12-20T09:09:48;79.00;;;32.50;;
72286;SDS011;60221;45.696;16.076;2023-12-20T09:12:16;120.30;;;50.10;;
72286;SDS011;60221;45.696;16.076;2023-12-20T09:14:43;115.80;;;48.00;;
72286;SDS011;60221;45.696;16.076;2023-12-20T09:17:10;109.00;;;43.90;;
72286;SDS011;60221;45.696;16.076;2023-12-20T09:19:38;94.60;;;40.70;;
72286;SDS011;60221;45.696;16.076;2023-12-20T09:22:05;84.00;;;36.20;;
72286;SDS011;60221;45.696;16.076;2023-12-20T09:24:32;100.50;;;41.50;;
72286;SDS011;60221;45.696;16.076;2023-12-20T09:26:59;91.40;;;37.10;;
72286;SDS011;60221;45.696;16.076;2023-12-20T09:29:26;92.60;;;38.40;;
72286;SDS011;60221;45.696;16.076;2023-12-20T09:31:53;68.60;;;28.50;;
72286;SDS011;60221;45.696;16.076;2023-12-20T09:34:20;84.60;;;35.10;;
72286;SDS011;60221;45.696;16.076;2023-12-20T09:36:47;89.80;;;37.30;;
72286;SDS011;60221;45.696;16.076;2023-12-20T09:39:15;101.70;;;39.80;;
72286;SDS011;60221;45.696;16.076;2023-12-20T09:41:46;133.70;;;50.30;;
72286;SDS011;60221;45.696;16.076;2023-12-20T09:44:16;90.90;;;37.30;;
72286;SDS011;60221;45.696;16.076;2023-12-20T09:46:47;79.80;;;34.30;;
72286;SDS011;60221;45.696;16.076;2023-12-20T09:49:15;69.70;;;32.00;;
72286;SDS011;60221;45.696;16.076;2023-12-20T09:51:43;115.00;;;50.80;;
72286;SDS011;60221;45.696;16.076;2023-12-20T09:54:12;95.90;;;41.30;;
72286;SDS011;60221;45.696;16.076;2023-12-20T09:56:40;83.30;;;32.70;;
72286;SDS011;60221;45.696;16.076;2023-12-20T09:59:07;73.70;;;33.40;;
72286;SDS011;60221;45.696;16.076;2023-12-20T10:01:34;71.60;;;31.70;;
72286;SDS011;60221;45.696;16.076;2023-12-20T10:04:04;72.70;;;32.30;;
72286;SDS011;60221;45.696;16.076;2023-12-20T10:06:37;59.10;;;26.90;;
72286;SDS011;60221;45.696;16.076;2023-12-20T10:09:04;54.50;;;25.00;;
72286;SDS011;60221;45.696;16.076;2023-12-20T10:11:31;63.60;;;26.00;;
72286;SDS011;60221;45.696;16.076;2023-12-20T10:14:01;53.00;;;25.10;;
72286;SDS011;60221;45.696;16.076;2023-12-20T10:16:28;55.40;;;25.90;;
72286;SDS011;60221;45.696;16.076;2023-12-20T10:18:56;58.80;;;26.20;;
72286;SDS011;60221;45.696;16.076;2023-12-20T10:21:23;70.90;;;30.80;;
72286;SDS011;60221;45.696;16.076;2023-12-20T10:23:50;61.10;;;27.10;;
72286;SDS011;60221;45.696;16.076;2023-12-20T10:26:21;58.90;;;25.50;;
72286;SDS011;60221;45.696;16.076;2023-12-20T10:28:52;66.70;;;29.70;;
72286;SDS011;60221;45.696;16.076;2023-12-20T10:31:32;56.70;;;26.70;;
72286;SDS011;60221;45.696;16.076;2023-12-20T10:34:00;58.50;;;25.70;;
72286;SDS011;60221;45.696;16.076;2023-12-20T10:36:30;58.30;;;25.60;;
72286;SDS011;60221;45.696;16.076;2023-12-20T10:38:57;55.70;;;27.00;;
72286;SDS011;60221;45.696;16.076;2023-12-20T10:41:28;55.90;;;25.80;;
72286;SDS011;60221;45.696;16.076;2023-12-20T10:43:57;52.70;;;24.20;;
72286;SDS011;60221;45.696;16.076;2023-12-20T10:46:26;72.90;;;28.50;;
72286;SDS011;60221;45.696;16.076;2023-12-20T10:48:53;60.70;;;27.00;;
72286;SDS011;60221;45.696;16.076;2023-12-20T10:51:21;70.30;;;30.40;;
72286;SDS011;60221;45.696;16.076;2023-12-20T10:53:50;61.90;;;28.30;;
72286;SDS011;60221;45.696;16.076;2023-12-20T10:56:17;73.20;;;30.40;;
72286;SDS011;60221;45.696;16.076;2023-12-20T10:58:45;65.20;;;28.30;;
72286;SDS011;60221;45.696;16.076;2023-12-20T11:01:12;73.80;;;29.00;;
72286;SDS011;60221;45.696;16.076;2023-12-20T11:03:42;75.70;;;32.70;;
72286;SDS011;60221;45.696;16.076;2023-12-20T11:06:13;72.40;;;30.80;;
72286;SDS011;60221;45.696;16.076;2023-12-20T11:08:49;67.60;;;30.10;;
72286;SDS011;60221;45.696;16.076;2023-12-20T11:11:29;75.00;;;31.70;;
72286;SDS011;60221;45.696;16.076;2023-12-20T11:14:05;105.60;;;44.60;;
72286;SDS011;60221;45.696;16.076;2023-12-20T11:16:33;89.60;;;39.90;;
72286;SDS011;60221;45.696;16.076;2023-12-20T11:19:17;123.40;;;55.90;;
72286;SDS011;60221;45.696;16.076;2023-12-20T11:21:44;82.50;;;37.90;;
72286;SDS011;60221;45.696;16.076;2023-12-20T11:24:12;73.80;;;32.90;;
72286;SDS011;60221;45.696;16.076;2023-12-20T11:26:39;78.20;;;34.00;;
72286;SDS011;60221;45.696;16.076;2023-12-20T11:32:00;77.00;;;33.10;;
72286;SDS011;60221;45.696;16.076;2023-12-20T11:34:28;67.10;;;29.40;;
72286;SDS011;60221;45.696;16.076;2023-12-20T11:36:59;75.00;;;33.00;;
72286;SDS011;60221;45.696;16.076;2023-12-20T11:39:26;66.50;;;30.50;;
72286;SDS011;60221;45.696;16.076;2023-12-20T11:41:55;89.20;;;37.10;;
72286;SDS011;60221;45.696;16.076;2023-12-20T11:44:25;90.90;;;40.80;;
72286;SDS011;60221;45.696;16.076;2023-12-20T11:46:54;80.00;;;36.60;;
72286;SDS011;60221;45.696;16.076;2023-12-20T11:49:23;94.80;;;39.60;;
72286;SDS011;60221;45.696;16.076;2023-12-20T11:51:51;81.00;;;34.50;;
72286;SDS011;60221;45.696;16.076;2023-12-20T11:54:18;68.70;;;31.30;;
72286;SDS011;60221;45.696;16.076;2023-12-20T11:56:46;68.10;;;32.00;;
72286;SDS011;60221;45.696;16.076;2023-12-20T11:59:13;80.20;;;35.40;;
72286;SDS011;60221;45.696;16.076;2023-12-20T12:01:49;68.60;;;30.60;;
72286;SDS011;60221;45.696;16.076;2023-12-20T12:04:22;82.60;;;37.10;;
72286;SDS011;60221;45.696;16.076;2023-12-20T12:06:49;72.50;;;33.50;;
72286;SDS011;60221;45.696;16.076;2023-12-20T12:09:15;77.90;;;34.10;;
72286;SDS011;60221;45.696;16.076;2023-12-20T12:11:43;78.30;;;33.60;;
72286;SDS011;60221;45.696;16.076;2023-12-20T12:14:10;88.60;;;40.00;;
72286;SDS011;60221;45.696;16.076;2023-12-20T12:16:38;86.60;;;40.10;;
72286;SDS011;60221;45.696;16.076;2023-12-20T12:19:05;93.60;;;39.30;;
72286;SDS011;60221;45.696;16.076;2023-12-20T12:21:31;88.40;;;39.80;;
72286;SDS011;60221;45.696;16.076;2023-12-20T12:24:06;81.40;;;34.80;;
72286;SDS011;60221;45.696;16.076;2023-12-20T12:26:33;77.30;;;33.20;;
72286;SDS011;60221;45.696;16.076;2023-12-20T12:29:00;99.00;;;44.60;;
72286;SDS011;60221;45.696;16.076;2023-12-20T12:31:27;89.40;;;42.30;;
72286;SDS011;60221;45.696;16.076;2023-12-20T12:33:54;76.90;;;35.70;;
72286;SDS011;60221;45.696;16.076;2023-12-20T12:36:21;82.90;;;38.90;;
72286;SDS011;60221;45.696;16.076;2023-12-20T12:38:49;76.80;;;35.90;;
72286;SDS011;60221;45.696;16.076;2023-12-20T12:41:16;74.90;;;34.40;;
72286;SDS011;60221;45.696;16.076;2023-12-20T12:43:43;74.00;;;35.60;;
72286;SDS011;60221;45.696;16.076;2023-12-20T12:46:09;78.80;;;35.30;;
72286;SDS011;60221;45.696;16.076;2023-12-20T12:48:36;72.50;;;34.90;;
72286;SDS011;60221;45.696;16.076;2023-12-20T12:51:03;72.10;;;34.00;;
72286;SDS011;60221;45.696;16.076;2023-12-20T12:53:30;68.70;;;33.60;;
72286;SDS011;60221;45.696;16.076;2023-12-20T12:55:57;67.90;;;32.90;;
72286;SDS011;60221;45.696;16.076;2023-12-20T12:58:24;72.90;;;36.60;;
72286;SDS011;60221;45.696;16.076;2023-12-20T13:00:52;70.10;;;34.00;;
72286;SDS011;60221;45.696;16.076;2023-12-20T13:03:19;69.30;;;32.50;;
72286;SDS011;60221;45.696;16.076;2023-12-20T13:05:46;65.50;;;32.40;;
72286;SDS011;60221;45.696;16.076;2023-12-20T13:08:14;73.60;;;34.10;;
72286;SDS011;60221;45.696;16.076;2023-12-20T13:10:41;80.20;;;39.50;;
72286;SDS011;60221;45.696;16.076;2023-12-20T13:13:08;80.60;;;39.50;;
72286;SDS011;60221;45.696;16.076;2023-12-20T13:15:35;72.10;;;34.10;;
72286;SDS011;60221;45.696;16.076;2023-12-20T13:18:02;69.50;;;33.40;;
72286;SDS011;60221;45.696;16.076;2023-12-20T13:20:29;66.90;;;34.00;;
72286;SDS011;60221;45.696;16.076;2023-12-20T13:22:56;68.40;;;32.50;;
72286;SDS011;60221;45.696;16.076;2023-12-20T13:25:22;73.50;;;34.50;;
72286;SDS011;60221;45.696;16.076;2023-12-20T13:27:50;83.50;;;39.10;;
72286;SDS011;60221;45.696;16.076;2023-12-20T13:30:17;73.80;;;33.70;;
72286;SDS011;60221;45.696;16.076;2023-12-20T13:32:44;72.60;;;33.60;;
72286;SDS011;60221;45.696;16.076;2023-12-20T13:35:11;66.70;;;32.30;;
72286;SDS011;60221;45.696;16.076;2023-12-20T13:37:38;70.60;;;33.30;;
72286;SDS011;60221;45.696;16.076;2023-12-20T13:40:06;74.00;;;36.70;;
72286;SDS011;60221;45.696;16.076;2023-12-20T13:42:33;66.80;;;31.10;;
72286;SDS011;60221;45.696;16.076;2023-12-20T13:45:00;72.30;;;35.00;;
72286;SDS011;60221;45.696;16.076;2023-12-20T13:47:26;73.30;;;35.00;;
72286;SDS011;60221;45.696;16.076;2023-12-20T13:49:53;71.00;;;34.80;;
72286;SDS011;60221;45.696;16.076;2023-12-20T13:52:20;81.10;;;36.40;;
72286;SDS011;60221;45.696;16.076;2023-12-20T13:54:47;78.00;;;35.10;;
72286;SDS011;60221;45.696;16.076;2023-12-20T13:57:14;92.70;;;43.40;;
72286;SDS011;60221;45.696;16.076;2023-12-20T13:59:57;88.40;;;38.50;;
72286;SDS011;60221;45.696;16.076;2023-12-20T14:02:24;87.40;;;41.60;;
72286;SDS011;60221;45.696;16.076;2023-12-20T14:04:53;78.30;;;37.00;;
72286;SDS011;60221;45.696;16.076;2023-12-20T14:07:20;87.30;;;41.40;;
72286;SDS011;60221;45.696;16.076;2023-12-20T14:09:48;79.70;;;38.30;;
72286;SDS011;60221;45.696;16.076;2023-12-20T14:12:15;77.20;;;36.80;;
72286;SDS011;60221;45.696;16.076;2023-12-20T14:14:41;75.40;;;36.50;;
72286;SDS011;60221;45.696;16.076;2023-12-20T14:17:08;86.70;;;43.30;;